Time,TemperatureF,DewpointF,PressureIn,WindDirection,WindDirectionDegrees,WindSpeedMPH,WindSpeedGustMPH,Humidity,HourlyPrecipIn,Conditions,Clouds,dailyrainin,SoftwareType,DateUTC
2013-08-11 00:04:00,64.9,48.3,30.19,NE,53,0.0,0.0,55,0.00,-RA,OVC,0.00,WeatherDisplay:10.37,2013-08-11 06:04:00,
2013-08-11 00:10:00,64.4,47.9,30.19,NE,53,0.0,0.0,55,0.00,-RA,OVC,0.00,WeatherDisplay:10.37,2013-08-11 06:10:00,
2013-08-11 00:15:00,64.0,48.0,30.19,NE,53,0.0,0.0,56,0.00,-RA,OVC,0.00,WeatherDisplay:10.37,2013-08-11 06:15:00,
2013-08-11 00:20:00,63.7,48.2,30.19,NE,53,0.0,0.0,57,0.00,-RA,OVC,0.00,WeatherDisplay:10.37,2013-08-11 06:20:00,
2013-08-11 00:25:00,63.3,48.3,30.19,NE,53,0.0,0.0,58,0.00,-RA,OVC,0.00,WeatherDisplay:10.37,2013-08-11 06:25:00,
2013-08-11 00:30:00,63.0,48.4,30.19,NE,53,0.0,0.0,59,0.00,-RA,OVC,0.00,WeatherDisplay:10.37,2013-08-11 06:30:00,
2013-08-11 00:35:00,62.6,48.5,30.19,NE,53,0.0,0.0,60,0.00,-RA,OVC,0.00,WeatherDisplay:10.37,2013-08-11 06:35:00,
2013-08-11 00:40:00,62.2,48.6,30.19,NE,53,0.0,0.1,61,0.00,-RA,OVC,0.00,WeatherDisplay:10.37,2013-08-11 06:40:00,
2013-08-11 00:45:00,61.9,48.3,30.19,NE,53,1.1,0.0,61,0.00,-RA,OVC,0.00,WeatherDisplay:10.37,2013-08-11 06:45:00,
2013-08-11 00:50:00,61.8,47.8,30.19,NE,53,3.5,3.5,60,0.00,-RA,OVC,0.00,WeatherDisplay:10.37,2013-08-11 06:50:00,
2013-08-11 00:55:00,61.9,47.4,30.19,NE,53,3.5,0.0,59,0.00,-RA,OVC,0.00,WeatherDisplay:10.37,2013-08-11 06:55:00,
2013-08-11 01:01:00,62.1,48.0,30.19,NE,53,3.5,3.5,60,0.00,-RA,OVC,0.00,WeatherDisplay:10.37,2013-08-11 07:01:00,
2013-08-11 01:06:00,62.6,48.1,30.19,NE,53,5.0,5.0,59,0.00,-RA,OVC,0.00,WeatherDisplay:10.37,2013-08-11 07:06:00,
2013-08-11 01:12:00,63.1,48.1,30.19,NE,46,3.5,3.5,58,0.00,-RA,OVC,0.00,WeatherDisplay:10.37,2013-08-11 07:12:00,
2013-08-11 01:17:00,63.5,48.5,30.19,NE,46,3.5,3.5,58,0.00,-RA,OVC,0.00,WeatherDisplay:10.37,2013-08-11 07:17:00,
2013-08-11 01:22:00,63.8,48.7,30.19,NE,46,1.1,1.1,58,0.00,-RA,OVC,0.00,WeatherDisplay:10.37,2013-08-11 07:22:00,
2013-08-11 01:27:00,63.9,49.3,30.19,NE,46,2.3,2.3,59,0.00,-RA,OVC,0.00,WeatherDisplay:10.37,2013-08-11 07:27:00,
2013-08-11 01:32:00,64.0,48.9,30.19,NE,47,3.5,3.5,58,0.00,-RA,OVC,0.00,WeatherDisplay:10.37,2013-08-11 07:32:00,
2013-08-11 01:38:00,63.9,49.3,30.19,NE,47,0.0,0.0,59,0.00,-RA,OVC,0.00,WeatherDisplay:10.37,2013-08-11 07:38:00,
2013-08-11 01:43:00,63.9,49.3,30.19,NE,47,0.0,0.0,59,0.00,-RA,OVC,0.00,WeatherDisplay:10.37,2013-08-11 07:43:00,
2013-08-11 01:48:00,63.9,48.8,30.19,NE,47,3.5,3.5,58,0.00,-RA,OVC,0.00,WeatherDisplay:10.37,2013-08-11 07:48:00,
2013-08-11 01:53:00,63.9,48.8,30.19,NE,47,0.0,0.0,58,0.00,-RA,OVC,0.00,WeatherDisplay:10.37,2013-08-11 07:53:00,
2013-08-11 01:58:00,63.8,48.7,30.19,NE,47,0.0,0.0,58,0.00,-RA,OVC,0.00,WeatherDisplay:10.37,2013-08-11 07:58:00,
2013-08-11 02:03:00,63.6,48.5,30.19,NE,47,0.0,0.0,58,0.00,-RA,OVC,0.00,WeatherDisplay:10.37,2013-08-11 08:03:00,
2013-08-11 02:08:00,63.2,49.1,30.19,NE,47,0.0,0.0,60,0.00,-RA,OVC,0.00,WeatherDisplay:10.37,2013-08-11 08:08:00,
2013-08-11 02:14:00,62.8,49.1,30.19,NE,47,0.0,0.0,61,0.00,-RA,OVC,0.00,WeatherDisplay:10.37,2013-08-11 08:14:00,
2013-08-11 02:19:00,62.4,48.8,30.17,NE,47,0.0,0.0,61,0.00,-RA,OVC,0.00,WeatherDisplay:10.37,2013-08-11 08:19:00,
2013-08-11 02:25:00,62.0,48.8,30.17,NE,47,0.0,0.0,62,0.00,-RA,OVC,0.00,WeatherDisplay:10.37,2013-08-11 08:25:00,
2013-08-11 02:30:00,61.6,48.9,30.17,NE,47,0.0,0.0,63,0.00,-RA,OVC,0.00,WeatherDisplay:10.37,2013-08-11 08:30:00,
2013-08-11 02:36:00,61.2,48.9,30.17,NE,47,0.0,0.0,64,0.00,-RA,OVC,0.00,WeatherDisplay:10.37,2013-08-11 08:36:00,
2013-08-11 02:41:00,60.8,49.4,30.17,NE,47,0.0,0.0,66,0.00,-RA,OVC,0.00,WeatherDisplay:10.37,2013-08-11 08:41:00,
2013-08-11 02:46:00,60.5,49.5,30.17,NE,47,0.0,0.0,67,0.00,-RA,OVC,0.00,WeatherDisplay:10.37,2013-08-11 08:46:00,
2013-08-11 02:51:00,60.2,49.2,30.17,NE,47,0.0,0.0,67,0.00,-RA,OVC,0.00,WeatherDisplay:10.37,2013-08-11 08:51:00,
2013-08-11 02:56:00,59.9,49.3,30.17,NE,47,0.0,0.0,68,0.00,-RA,OVC,0.00,WeatherDisplay:10.37,2013-08-11 08:56:00,
2013-08-11 03:02:00,59.7,49.5,30.17,NE,47,0.0,0.0,69,0.00,-RA,OVC,0.00,WeatherDisplay:10.37,2013-08-11 09:02:00,
2013-08-11 03:07:00,59.6,49.4,30.17,NE,47,0.0,0.0,69,0.00,-RA,OVC,0.00,WeatherDisplay:10.37,2013-08-11 09:07:00,
2013-08-11 03:12:00,59.5,47.3,30.17,NE,47,3.5,3.5,64,0.00,-RA,OVC,0.00,WeatherDisplay:10.37,2013-08-11 09:12:00,
2013-08-11 03:18:00,60.0,45.6,30.17,NE,47,1.1,0.0,59,0.00,-RA,OVC,0.00,WeatherDisplay:10.37,2013-08-11 09:18:00,
2013-08-11 03:23:00,60.8,45.5,30.17,NE,47,2.3,2.3,57,0.00,-RA,OVC,0.00,WeatherDisplay:10.37,2013-08-11 09:23:00,
2013-08-11 03:28:00,61.8,45.0,30.17,NE,50,5.8,5.8,54,0.00,-RA,OVC,0.00,WeatherDisplay:10.37,2013-08-11 09:28:00,
2013-08-11 03:33:00,63.8,44.8,30.17,ESE,117,9.2,9.2,50,0.00,-RA,OVC,0.00,WeatherDisplay:10.37,2013-08-11 09:33:00,
2013-08-11 03:38:00,65.3,44.5,30.17,ESE,110,3.5,3.5,47,0.00,-RA,OVC,0.00,WeatherDisplay:10.37,2013-08-11 09:38:00,
2013-08-11 03:44:00,66.3,44.3,30.17,ESE,117,5.8,5.8,45,0.00,-RA,OVC,0.00,WeatherDisplay:10.37,2013-08-11 09:44:00,
2013-08-11 03:49:00,67.0,44.9,30.17,SE,126,2.3,0.0,45,0.00,-RA,OVC,0.00,WeatherDisplay:10.37,2013-08-11 09:49:00,
2013-08-11 03:54:00,67.3,45.2,30.17,ESE,112,4.6,4.6,45,0.00,-RA,OVC,0.00,WeatherDisplay:10.37,2013-08-11 09:54:00,
2013-08-11 03:59:00,67.4,45.3,30.17,SE,142,3.5,3.5,45,0.00,-RA,OVC,0.00,WeatherDisplay:10.37,2013-08-11 09:59:00,
2013-08-11 04:05:00,67.5,45.4,30.17,ESE,119,1.1,1.2,45,0.00,-RA,OVC,0.00,WeatherDisplay:10.37,2013-08-11 10:05:00,
2013-08-11 04:10:00,67.4,44.7,30.17,SE,128,5.0,5.0,44,0.00,-RA,OVC,0.00,WeatherDisplay:10.37,2013-08-11 10:10:00,
2013-08-11 04:15:00,67.5,44.2,30.17,SE,142,6.9,6.9,43,0.00,-RA,OVC,0.00,WeatherDisplay:10.37,2013-08-11 10:15:00,
2013-08-11 04:20:00,67.6,44.9,30.17,SE,128,2.3,2.3,44,0.00,-RA,OVC,0.00,WeatherDisplay:10.37,2013-08-11 10:20:00,
2013-08-11 04:26:00,67.5,45.4,30.17,SE,132,1.1,0.0,45,0.00,-RA,OVC,0.00,WeatherDisplay:10.37,2013-08-11 10:26:00,
2013-08-11 04:31:00,67.4,45.9,30.17,SSW,196,6.9,6.9,46,0.00,-RA,OVC,0.00,WeatherDisplay:10.37,2013-08-11 10:31:00,
2013-08-11 04:36:00,67.2,46.3,30.17,SSW,200,1.1,0.0,47,0.00,-RA,OVC,0.00,WeatherDisplay:10.37,2013-08-11 10:36:00,
2013-08-11 04:41:00,67.0,46.7,30.17,SSW,200,0.0,0.0,48,0.00,-RA,OVC,0.00,WeatherDisplay:10.37,2013-08-11 10:41:00,
2013-08-11 04:46:00,66.7,46.9,30.17,SSW,200,0.0,0.0,49,0.00,-RA,OVC,0.00,WeatherDisplay:10.37,2013-08-11 10:46:00,
2013-08-11 04:51:00,66.3,47.1,30.17,SSW,200,0.0,0.0,50,0.00,-RA,OVC,0.00,WeatherDisplay:10.37,2013-08-11 10:51:00,
2013-08-11 04:56:00,65.9,47.3,30.17,SSW,200,0.0,0.0,51,0.00,-RA,OVC,0.00,WeatherDisplay:10.37,2013-08-11 10:56:00,
2013-08-11 05:02:00,65.4,47.8,30.17,SSW,200,0.0,0.0,53,0.00,-RA,OVC,0.00,WeatherDisplay:10.37,2013-08-11 11:02:00,
2013-08-11 05:07:00,64.9,48.8,30.17,SSW,200,1.1,0.0,56,0.00,-RA,OVC,0.00,WeatherDisplay:10.37,2013-08-11 11:07:00,
2013-08-11 05:12:00,64.3,48.7,30.17,SSW,200,0.0,0.0,57,0.00,-RA,OVC,0.00,WeatherDisplay:10.37,2013-08-11 11:12:00,
2013-08-11 05:18:00,63.8,49.2,30.17,SSW,200,0.0,0.0,59,0.00,-RA,OVC,0.00,WeatherDisplay:10.37,2013-08-11 11:18:00,
2013-08-11 05:23:00,63.2,49.1,30.17,SSW,200,0.0,0.0,60,0.00,-RA,OVC,0.00,WeatherDisplay:10.37,2013-08-11 11:23:00,
2013-08-11 05:28:00,62.6,49.4,30.17,SSW,200,0.0,0.0,62,0.00,-RA,OVC,0.00,WeatherDisplay:10.37,2013-08-11 11:28:00,
2013-08-11 05:34:00,62.1,49.4,30.17,SSW,200,0.0,0.0,63,0.00,-RA,OVC,0.00,WeatherDisplay:10.37,2013-08-11 11:34:00,
2013-08-11 05:39:00,61.5,49.6,30.17,SSW,200,0.0,0.0,65,0.00,-RA,OVC,0.00,WeatherDisplay:10.37,2013-08-11 11:39:00,
2013-08-11 05:44:00,61.0,49.6,30.17,SSW,200,0.0,0.0,66,0.00,-RA,OVC,0.00,WeatherDisplay:10.37,2013-08-11 11:44:00,
2013-08-11 05:49:00,60.4,49.4,30.17,SSW,200,0.0,0.0,67,0.00,-RA,OVC,0.00,WeatherDisplay:10.37,2013-08-11 11:49:00,
2013-08-11 05:54:00,59.8,49.2,30.17,SSW,200,0.0,0.0,68,0.00,-RA,OVC,0.00,WeatherDisplay:10.37,2013-08-11 11:54:00,
2013-08-11 06:00:00,59.4,49.2,30.17,SSW,200,0.0,0.0,69,0.00,-RA,OVC,0.00,WeatherDisplay:10.37,2013-08-11 12:00:00,
2013-08-11 06:05:00,59.0,49.6,30.17,SSW,200,0.0,0.0,71,0.00,-RA,OVC,0.00,WeatherDisplay:10.37,2013-08-11 12:05:00,
2013-08-11 06:10:00,58.6,49.6,30.17,SSW,200,0.0,0.0,72,0.00,-RA,OVC,0.00,WeatherDisplay:10.37,2013-08-11 12:10:00,
2013-08-11 06:15:00,58.2,49.6,30.17,SSW,200,0.0,0.0,73,0.00,-RA,OVC,0.00,WeatherDisplay:10.37,2013-08-11 12:15:00,
2013-08-11 06:20:00,57.8,49.6,30.17,SSW,200,0.0,0.0,74,0.00,-RA,OVC,0.00,WeatherDisplay:10.37,2013-08-11 12:20:00,
2013-08-11 06:25:00,57.4,49.9,30.17,SSW,200,2.3,2.3,76,0.00,-RA,OVC,0.00,WeatherDisplay:10.37,2013-08-11 12:25:00,
2013-08-11 06:31:00,57.2,50.1,30.17,SSW,200,0.0,0.0,77,0.00,-RA,OVC,0.00,WeatherDisplay:10.37,2013-08-11 12:31:00,
2013-08-11 06:36:00,57.1,50.0,30.17,SSW,200,0.0,0.0,77,0.00,-RA,OVC,0.00,WeatherDisplay:10.37,2013-08-11 12:36:00,
2013-08-11 06:41:00,57.1,49.6,30.17,SSW,200,1.1,0.0,76,0.00,-RA,OVC,0.00,WeatherDisplay:10.37,2013-08-11 12:41:00,
2013-08-11 06:46:00,57.2,49.7,30.17,SSW,200,0.0,0.0,76,0.00,-RA,OVC,0.00,WeatherDisplay:10.37,2013-08-11 12:46:00,
2013-08-11 06:51:00,57.4,49.9,30.17,SSW,200,0.0,0.0,76,0.00,-RA,OVC,0.00,WeatherDisplay:10.37,2013-08-11 12:51:00,
2013-08-11 06:56:00,57.6,49.7,30.17,SSW,200,0.0,0.0,75,0.00,-RA,OVC,0.00,WeatherDisplay:10.37,2013-08-11 12:56:00,
2013-08-11 07:01:00,57.8,50.3,30.17,SSW,200,0.0,0.0,76,0.00,-RA,OVC,0.00,WeatherDisplay:10.37,2013-08-11 13:01:00,
2013-08-11 07:07:00,58.0,50.5,30.17,SSW,200,0.0,0.0,76,0.00,-RA,OVC,0.00,WeatherDisplay:10.37,2013-08-11 13:07:00,
2013-08-11 07:12:00,58.3,51.1,30.17,SSW,200,0.0,0.0,77,0.00,-RA,OVC,0.00,WeatherDisplay:10.37,2013-08-11 13:12:00,
2013-08-11 07:17:00,58.7,51.5,30.22,SSW,200,0.0,0.0,77,0.00,-RA,OVC,0.00,WeatherDisplay:10.37,2013-08-11 13:17:00,
2013-08-11 07:22:00,59.1,52.2,30.22,SSW,200,0.0,0.0,78,0.00,-RA,OVC,0.00,WeatherDisplay:10.37,2013-08-11 13:22:00,
2013-08-11 07:27:00,59.4,51.8,30.22,SSW,200,0.0,0.0,76,0.00,-RA,OVC,0.00,WeatherDisplay:10.37,2013-08-11 13:27:00,
2013-08-11 07:32:00,59.8,52.6,30.22,SSW,200,0.0,0.0,77,0.00,-RA,OVC,0.00,WeatherDisplay:10.37,2013-08-11 13:32:00,
2013-08-11 07:37:00,60.4,52.8,30.22,SSW,200,0.0,0.0,76,0.00,-RA,OVC,0.00,WeatherDisplay:10.37,2013-08-11 13:37:00,
2013-08-11 07:42:00,61.3,54.0,30.22,SSW,200,0.0,0.0,77,0.00,-RA,OVC,0.00,WeatherDisplay:10.37,2013-08-11 13:42:00,
2013-08-11 07:49:00,62.3,54.3,30.22,SSW,200,0.0,0.0,75,0.00,-RA,OVC,0.00,WeatherDisplay:10.37,2013-08-11 13:49:00,
2013-08-11 07:54:00,63.1,53.2,30.22,SSW,200,0.0,0.2,70,0.00,-RA,OVC,0.00,WeatherDisplay:10.37,2013-08-11 13:54:00,
2013-08-11 07:59:00,63.9,53.1,30.22,SSW,200,0.0,0.0,68,0.00,-RA,OVC,0.00,WeatherDisplay:10.37,2013-08-11 13:59:00,
2013-08-11 08:05:00,64.4,52.4,30.22,SSW,200,0.0,0.0,65,0.00,-RA,OVC,0.00,WeatherDisplay:10.37,2013-08-11 14:05:00,
2013-08-11 08:10:00,65.0,53.8,30.22,SSW,200,0.0,0.0,67,0.00,-RA,OVC,0.00,WeatherDisplay:10.37,2013-08-11 14:10:00,
2013-08-11 08:15:00,65.7,53.2,30.22,SSW,200,1.1,0.0,64,0.00,-RA,OVC,0.00,WeatherDisplay:10.37,2013-08-11 14:15:00,
2013-08-11 08:21:00,66.3,52.9,30.22,SSW,200,0.0,0.0,62,0.00,-RA,OVC,0.00,WeatherDisplay:10.37,2013-08-11 14:21:00,
2013-08-11 08:27:00,67.2,53.3,30.22,SSW,200,0.0,0.0,61,0.00,-RA,OVC,0.00,WeatherDisplay:10.37,2013-08-11 14:27:00,
2013-08-11 08:32:00,67.7,53.3,30.22,SSW,200,0.0,0.0,60,0.00,-RA,OVC,0.00,WeatherDisplay:10.37,2013-08-11 14:32:00,
2013-08-11 08:37:00,68.4,52.6,30.22,SSW,200,0.0,0.0,57,0.00,-RA,OVC,0.00,WeatherDisplay:10.37,2013-08-11 14:37:00,
2013-08-11 08:42:00,69.2,51.3,30.23,SSW,200,1.1,0.0,53,0.00,-RA,OVC,0.00,WeatherDisplay:10.37,2013-08-11 14:42:00,
2013-08-11 08:48:00,69.9,51.5,30.23,SSW,200,1.1,1.1,52,0.00,-RA,OVC,0.00,WeatherDisplay:10.37,2013-08-11 14:48:00,
2013-08-11 08:53:00,70.1,51.1,30.23,SSW,200,1.1,0.0,51,0.00,-RA,OVC,0.00,WeatherDisplay:10.37,2013-08-11 14:53:00,
2013-08-11 08:58:00,70.1,51.7,30.23,SSW,200,0.0,0.1,52,0.00,-RA,OVC,0.00,WeatherDisplay:10.37,2013-08-11 14:58:00,
2013-08-11 09:03:00,70.2,51.2,30.23,SSW,194,2.0,2.0,51,0.00,-RA,OVC,0.00,WeatherDisplay:10.37,2013-08-11 15:03:00,
2013-08-11 09:08:00,70.2,52.3,30.23,SSW,194,0.0,0.2,53,0.00,-RA,OVC,0.00,WeatherDisplay:10.37,2013-08-11 15:08:00,
2013-08-11 09:13:00,70.5,51.0,30.23,SSW,193,1.1,0.0,50,0.00,-RA,OVC,0.00,WeatherDisplay:10.37,2013-08-11 15:13:00,
2013-08-11 09:18:00,70.9,51.9,30.23,SSW,193,0.0,0.2,51,0.00,-RA,OVC,0.00,WeatherDisplay:10.37,2013-08-11 15:18:00,
2013-08-11 09:23:00,71.5,50.8,30.23,SSW,193,1.1,0.0,48,0.00,-RA,OVC,0.00,WeatherDisplay:10.37,2013-08-11 15:23:00,
2013-08-11 09:29:00,72.5,49.9,30.23,SSW,193,1.1,1.1,45,0.00,-RA,OVC,0.00,WeatherDisplay:10.37,2013-08-11 15:29:00,
2013-08-11 09:34:00,73.2,50.6,30.23,SSW,193,0.0,0.1,45,0.00,-RA,OVC,0.00,WeatherDisplay:10.37,2013-08-11 15:34:00,
2013-08-11 09:39:00,74.1,50.2,30.23,SSW,194,2.3,2.3,43,0.00,-RA,OVC,0.00,WeatherDisplay:10.37,2013-08-11 15:39:00,
2013-08-11 09:45:00,74.6,51.2,30.23,SSW,194,1.1,1.1,44,0.00,-RA,OVC,0.00,WeatherDisplay:10.37,2013-08-11 15:45:00,
2013-08-11 09:50:00,75.1,49.1,30.23,SSW,194,1.1,1.1,40,0.00,-RA,OVC,0.00,WeatherDisplay:10.37,2013-08-11 15:50:00,
2013-08-11 09:55:00,75.3,49.3,30.23,ESE,121,0.0,0.1,40,0.00,-RA,OVC,0.00,WeatherDisplay:10.37,2013-08-11 15:55:00,
2013-08-11 10:00:00,75.5,46.7,30.23,ESE,121,2.3,2.3,36,0.00,-RA,OVC,0.00,WeatherDisplay:10.37,2013-08-11 16:00:00,
2013-08-11 10:05:00,75.5,48.1,30.23,ESE,121,2.3,2.3,38,0.00,-RA,OVC,0.00,WeatherDisplay:10.37,2013-08-11 16:05:00,
2013-08-11 10:10:00,75.6,48.9,30.23,ESE,121,0.0,0.3,39,0.00,-RA,OVC,0.00,WeatherDisplay:10.37,2013-08-11 16:10:00,
2013-08-11 10:16:00,76.2,49.4,30.23,ESE,119,1.1,1.1,39,0.00,-RA,OVC,0.00,WeatherDisplay:10.37,2013-08-11 16:16:00,
2013-08-11 10:21:00,76.9,48.6,30.23,North,9,3.5,3.5,37,0.00,-RA,OVC,0.00,WeatherDisplay:10.37,2013-08-11 16:21:00,
2013-08-11 10:26:00,77.2,48.9,30.23,North,9,1.1,1.1,37,0.00,-RA,OVC,0.00,WeatherDisplay:10.37,2013-08-11 16:26:00,
2013-08-11 10:31:00,77.5,49.9,30.23,NNE,22,1.1,1.1,38,0.00,-RA,OVC,0.00,WeatherDisplay:10.37,2013-08-11 16:31:00,
2013-08-11 10:36:00,77.7,48.6,30.23,NNE,22,1.1,1.1,36,0.00,-RA,OVC,0.00,WeatherDisplay:10.37,2013-08-11 16:36:00,
2013-08-11 10:42:00,78.4,49.2,30.23,NNE,22,2.3,2.3,36,0.00,-RA,OVC,0.00,WeatherDisplay:10.37,2013-08-11 16:42:00,
2013-08-11 10:47:00,79.1,49.1,30.23,NNE,17,1.1,1.1,35,0.00,-RA,OVC,0.00,WeatherDisplay:10.37,2013-08-11 16:47:00,
2013-08-11 10:53:00,79.1,49.8,30.22,NNE,19,1.1,1.1,36,0.00,-RA,OVC,0.00,WeatherDisplay:10.37,2013-08-11 16:53:00,
2013-08-11 10:58:00,78.5,49.3,30.22,NNE,19,1.1,1.1,36,0.00,-RA,OVC,0.00,WeatherDisplay:10.37,2013-08-11 16:58:00,
2013-08-11 11:03:00,78.2,49.8,30.22,NW,324,2.3,2.3,37,0.00,-RA,OVC,0.00,WeatherDisplay:10.37,2013-08-11 17:03:00,
2013-08-11 11:08:00,78.0,48.9,30.22,West,269,0.0,0.0,36,0.00,-RA,OVC,0.00,WeatherDisplay:10.37,2013-08-11 17:08:00,
2013-08-11 11:13:00,78.5,49.3,30.22,West,271,0.0,0.0,36,0.00,-RA,OVC,0.00,WeatherDisplay:10.37,2013-08-11 17:13:00,
2013-08-11 11:18:00,79.2,48.4,30.22,West,265,2.3,0.0,34,0.00,-RA,OVC,0.00,WeatherDisplay:10.37,2013-08-11 17:18:00,
2013-08-11 11:24:00,80.0,49.9,30.22,SSW,194,2.3,2.3,35,0.00,-RA,OVC,0.00,WeatherDisplay:10.37,2013-08-11 17:24:00,
2013-08-11 11:29:00,80.4,47.0,30.22,SSW,204,2.3,2.3,31,0.00,-RA,OVC,0.00,WeatherDisplay:10.37,2013-08-11 17:29:00,
2013-08-11 11:34:00,80.7,48.9,30.22,SW,234,1.1,1.1,33,0.00,-RA,OVC,0.00,WeatherDisplay:10.37,2013-08-11 17:34:00,
2013-08-11 11:40:00,81.2,47.7,30.22,WSW,244,4.6,4.6,31,0.00,-RA,OVC,0.00,WeatherDisplay:10.37,2013-08-11 17:40:00,
2013-08-11 11:45:00,81.6,47.2,30.22,SW,229,2.3,2.3,30,0.00,-RA,OVC,0.00,WeatherDisplay:10.37,2013-08-11 17:45:00,
2013-08-11 11:50:00,81.3,48.6,30.22,SSW,205,1.1,1.1,32,0.00,-RA,OVC,0.00,WeatherDisplay:10.37,2013-08-11 17:50:00,
2013-08-11 11:55:00,81.3,50.2,30.22,WSW,237,1.1,1.1,34,0.00,-RA,OVC,0.00,WeatherDisplay:10.37,2013-08-11 17:55:00,
2013-08-11 12:00:00,81.2,47.7,30.22,NW,324,4.6,4.6,31,0.00,-RA,OVC,0.00,WeatherDisplay:10.37,2013-08-11 18:00:00,
2013-08-11 12:06:00,81.1,48.4,30.22,SW,217,3.5,3.5,32,0.00,-RA,OVC,0.00,WeatherDisplay:10.37,2013-08-11 18:06:00,
2013-08-11 12:11:00,81.2,51.7,30.22,SSW,199,3.5,3.5,36,0.00,-RA,OVC,0.00,WeatherDisplay:10.37,2013-08-11 18:11:00,
2013-08-11 12:16:00,81.1,50.9,30.22,South,171,3.5,3.5,35,0.00,-RA,OVC,0.00,WeatherDisplay:10.37,2013-08-11 18:16:00,
2013-08-11 12:21:00,81.3,47.8,30.22,WNW,284,8.1,8.1,31,0.00,-RA,OVC,0.00,WeatherDisplay:10.37,2013-08-11 18:21:00,
2013-08-11 12:27:00,80.9,49.1,30.22,West,263,4.6,4.6,33,0.00,-RA,OVC,0.00,WeatherDisplay:10.37,2013-08-11 18:27:00,
2013-08-11 12:33:00,81.1,49.3,30.22,West,264,3.5,3.5,33,0.00,-RA,OVC,0.00,WeatherDisplay:10.37,2013-08-11 18:33:00,
2013-08-11 12:38:00,81.2,49.4,30.22,SW,232,3.5,3.5,33,0.00,-RA,OVC,0.00,WeatherDisplay:10.37,2013-08-11 18:38:00,
2013-08-11 12:43:00,81.5,47.1,30.22,WSW,250,4.6,4.6,30,0.00,-RA,OVC,0.00,WeatherDisplay:10.37,2013-08-11 18:43:00,
2013-08-11 12:48:00,81.6,47.2,30.22,WSW,237,3.0,3.0,30,0.00,-RA,OVC,0.00,WeatherDisplay:10.37,2013-08-11 18:48:00,
2013-08-11 12:53:00,82.2,48.6,30.22,WSW,237,2.0,2.0,31,0.00,-RA,OVC,0.00,WeatherDisplay:10.37,2013-08-11 18:53:00,
2013-08-11 12:58:00,82.7,48.1,30.22,SSW,195,4.0,4.0,30,0.00,-RA,OVC,0.00,WeatherDisplay:10.37,2013-08-11 18:58:00,
2013-08-11 13:04:00,82.8,49.1,30.22,SW,236,3.5,3.5,31,0.00,-RA,OVC,0.00,WeatherDisplay:10.37,2013-08-11 19:04:00,
2013-08-11 13:09:00,82.7,49.0,30.22,WSW,254,3.5,3.5,31,0.00,-RA,OVC,0.00,WeatherDisplay:10.37,2013-08-11 19:09:00,
2013-08-11 13:14:00,82.7,48.1,30.22,SSW,213,3.5,3.5,30,0.00,-RA,OVC,0.00,WeatherDisplay:10.37,2013-08-11 19:14:00,
2013-08-11 13:20:00,83.0,49.2,30.22,East,92,3.5,3.5,31,0.00,-RA,OVC,0.00,WeatherDisplay:10.37,2013-08-11 19:20:00,
2013-08-11 13:25:00,83.0,49.2,30.22,WNW,283,3.5,3.5,31,0.00,-RA,OVC,0.00,WeatherDisplay:10.37,2013-08-11 19:25:00,
2013-08-11 13:30:00,82.8,48.2,30.22,West,266,3.5,3.5,30,0.00,-RA,OVC,0.00,WeatherDisplay:10.37,2013-08-11 19:30:00,
2013-08-11 13:35:00,82.7,48.1,30.22,WSW,258,3.5,3.5,30,0.00,-RA,OVC,0.00,WeatherDisplay:10.37,2013-08-11 19:35:00,
2013-08-11 13:41:00,82.3,46.9,30.22,WSW,252,3.5,3.5,29,0.00,-RA,OVC,0.00,WeatherDisplay:10.37,2013-08-11 19:41:00,
2013-08-11 13:46:00,82.1,49.3,30.18,WSW,252,2.3,2.3,32,0.00,-RA,OVC,0.00,WeatherDisplay:10.37,2013-08-11 19:46:00,
2013-08-11 13:51:00,82.5,50.5,30.18,WSW,243,2.3,2.3,33,0.00,-RA,OVC,0.00,WeatherDisplay:10.37,2013-08-11 19:51:00,
2013-08-11 13:56:00,83.0,50.9,30.18,SSW,212,4.6,4.6,33,0.00,-RA,OVC,0.00,WeatherDisplay:10.37,2013-08-11 19:56:00,
2013-08-11 14:01:00,83.2,51.1,30.18,SW,224,3.5,3.5,33,0.00,-RA,OVC,0.00,WeatherDisplay:10.37,2013-08-11 20:01:00,
2013-08-11 14:06:00,83.4,48.7,30.18,SW,224,3.5,3.5,30,0.00,-RA,OVC,0.00,WeatherDisplay:10.37,2013-08-11 20:06:00,
2013-08-11 14:11:00,83.5,49.7,30.18,South,184,9.2,9.2,31,0.00,-RA,OVC,0.00,WeatherDisplay:10.37,2013-08-11 20:11:00,
2013-08-11 14:17:00,83.0,48.4,30.18,WSW,251,3.5,3.5,30,0.00,-RA,OVC,0.00,WeatherDisplay:10.37,2013-08-11 20:17:00,
2013-08-11 14:23:00,82.4,48.7,30.18,West,261,3.5,3.5,31,0.00,-RA,OVC,0.00,WeatherDisplay:10.37,2013-08-11 20:23:00,
2013-08-11 14:28:00,81.9,48.3,30.18,West,265,2.3,2.3,31,0.00,-RA,OVC,0.00,WeatherDisplay:10.37,2013-08-11 20:28:00,
2013-08-11 14:33:00,80.9,49.1,30.18,SSW,197,9.2,9.2,33,0.00,-RA,OVC,0.00,WeatherDisplay:10.37,2013-08-11 20:33:00,
2013-08-11 14:38:00,77.8,49.4,30.18,ESE,123,13.8,13.8,37,0.00,-RA,OVC,0.00,WeatherDisplay:10.37,2013-08-11 20:38:00,
2013-08-11 14:43:00,75.6,49.6,30.18,South,180,15.0,15.0,40,0.00,-RA,OVC,0.00,WeatherDisplay:10.37,2013-08-11 20:43:00,
2013-08-11 14:48:00,74.2,49.6,30.18,SW,231,9.2,9.2,42,0.00,-RA,OVC,0.00,WeatherDisplay:10.37,2013-08-11 20:48:00,
2013-08-11 14:54:00,73.3,48.8,30.18,SW,228,5.8,5.8,42,0.00,-RA,OVC,0.00,WeatherDisplay:10.37,2013-08-11 20:54:00,
2013-08-11 15:00:00,72.9,49.7,30.18,SE,133,11.5,11.5,44,0.00,-RA,OVC,0.00,WeatherDisplay:10.37,2013-08-11 21:00:00,
2013-08-11 15:05:00,72.4,49.9,30.20,South,175,5.8,5.8,45,0.00,-RA,OVC,0.00,WeatherDisplay:10.37,2013-08-11 21:05:00,
2013-08-11 15:10:00,71.9,50.0,30.20,SSE,151,3.5,3.5,46,0.00,-RA,OVC,0.00,WeatherDisplay:10.37,2013-08-11 21:10:00,
2013-08-11 15:15:00,71.9,50.6,30.20,SSE,154,1.1,0.0,47,0.00,-RA,OVC,0.00,WeatherDisplay:10.37,2013-08-11 21:15:00,
2013-08-11 15:20:00,72.2,50.8,30.20,SSE,154,0.0,0.0,47,0.00,-RA,OVC,0.00,WeatherDisplay:10.37,2013-08-11 21:20:00,
2013-08-11 15:25:00,72.4,49.9,30.20,SSE,153,2.3,2.3,45,0.00,-RA,OVC,0.00,WeatherDisplay:10.37,2013-08-11 21:25:00,
2013-08-11 15:30:00,72.5,49.9,30.20,SE,125,5.0,5.1,45,0.00,-RA,OVC,0.00,WeatherDisplay:10.37,2013-08-11 21:30:00,
2013-08-11 15:35:00,72.6,49.4,30.20,ESE,111,4.6,5.1,44,0.00,-RA,OVC,0.00,WeatherDisplay:10.37,2013-08-11 21:35:00,
2013-08-11 15:40:00,72.7,49.5,30.20,ESE,107,3.5,3.5,44,0.00,-RA,OVC,0.00,WeatherDisplay:10.37,2013-08-11 21:40:00,
2013-08-11 15:46:00,73.0,50.4,30.20,SE,140,3.5,3.5,45,0.00,-RA,OVC,0.00,WeatherDisplay:10.37,2013-08-11 21:46:00,
2013-08-11 15:51:00,73.3,51.3,30.20,ESE,123,1.1,1.1,46,0.00,-RA,OVC,0.00,WeatherDisplay:10.37,2013-08-11 21:51:00,
2013-08-11 15:56:00,73.7,49.8,30.20,ESE,119,3.5,3.5,43,0.00,-RA,OVC,0.00,WeatherDisplay:10.37,2013-08-11 21:56:00,
2013-08-11 16:01:00,74.3,52.8,30.20,ESE,119,1.1,1.1,47,0.00,-RA,OVC,0.00,WeatherDisplay:10.37,2013-08-11 22:01:00,
2013-08-11 16:06:00,75.0,51.6,30.20,ESE,119,1.1,0.0,44,0.00,-RA,OVC,0.00,WeatherDisplay:10.37,2013-08-11 22:06:00,
2013-08-11 16:11:00,75.9,51.2,30.20,SE,128,2.3,2.3,42,0.00,-RA,OVC,0.00,WeatherDisplay:10.37,2013-08-11 22:11:00,
2013-08-11 16:17:00,76.9,51.4,30.20,SE,124,3.5,3.5,41,0.00,-RA,OVC,0.00,WeatherDisplay:10.37,2013-08-11 22:17:00,
2013-08-11 16:22:00,77.7,49.3,30.20,South,173,8.1,8.1,37,0.00,-RA,OVC,0.00,WeatherDisplay:10.37,2013-08-11 22:22:00,
2013-08-11 16:27:00,77.8,48.7,30.20,ESE,115,4.6,4.6,36,0.00,-RA,OVC,0.00,WeatherDisplay:10.37,2013-08-11 22:27:00,
2013-08-11 16:32:00,77.9,50.2,30.20,ESE,115,1.1,1.1,38,0.00,-RA,OVC,0.00,WeatherDisplay:10.37,2013-08-11 22:32:00,
2013-08-11 16:37:00,78.0,51.0,30.20,ESE,116,1.1,1.1,39,0.00,-RA,OVC,0.00,WeatherDisplay:10.37,2013-08-11 22:37:00,
2013-08-11 16:42:00,77.9,49.5,30.20,ESE,116,0.0,0.0,37,0.00,-RA,OVC,0.00,WeatherDisplay:10.37,2013-08-11 22:42:00,
2013-08-11 16:47:00,77.9,50.2,30.20,ESE,116,0.0,0.0,38,0.00,-RA,OVC,0.00,WeatherDisplay:10.37,2013-08-11 22:47:00,
2013-08-11 16:52:00,77.8,50.9,30.20,ESE,116,0.0,0.0,39,0.00,-RA,OVC,0.00,WeatherDisplay:10.37,2013-08-11 22:52:00,
2013-08-11 16:57:00,77.8,49.4,30.20,ESE,116,2.3,2.3,37,0.00,-RA,OVC,0.00,WeatherDisplay:10.37,2013-08-11 22:57:00,
2013-08-11 17:02:00,78.0,51.7,30.20,ESE,116,1.1,1.1,40,0.00,-RA,OVC,0.00,WeatherDisplay:10.37,2013-08-11 23:02:00,
2013-08-11 17:08:00,78.3,50.6,30.20,ENE,58,4.6,4.6,38,0.00,-RA,OVC,0.00,WeatherDisplay:10.37,2013-08-11 23:08:00,
2013-08-11 17:13:00,78.4,49.2,30.20,ENE,57,2.3,2.3,36,0.00,-RA,OVC,0.00,WeatherDisplay:10.37,2013-08-11 23:13:00,
2013-08-11 17:18:00,78.3,49.9,30.20,ENE,57,3.5,3.5,37,0.00,-RA,OVC,0.00,WeatherDisplay:10.37,2013-08-11 23:18:00,
2013-08-11 17:23:00,78.3,49.1,30.20,ENE,57,2.3,2.3,36,0.00,-RA,OVC,0.00,WeatherDisplay:10.37,2013-08-11 23:23:00,
2013-08-11 17:28:00,78.6,50.1,30.20,ENE,57,2.3,2.3,37,0.00,-RA,OVC,0.00,WeatherDisplay:10.37,2013-08-11 23:28:00,
2013-08-11 17:34:00,78.7,50.2,30.20,ENE,57,1.1,0.0,37,0.00,-RA,OVC,0.00,WeatherDisplay:10.37,2013-08-11 23:34:00,
2013-08-11 17:39:00,78.5,49.3,30.20,ENE,61,3.5,3.5,36,0.00,-RA,OVC,0.00,WeatherDisplay:10.37,2013-08-11 23:39:00,
2013-08-11 17:44:00,78.2,50.5,30.20,ENE,61,0.0,0.0,38,0.00,-RA,OVC,0.00,WeatherDisplay:10.37,2013-08-11 23:44:00,
2013-08-11 17:49:00,78.1,50.4,30.20,ENE,61,1.1,1.1,38,0.00,-RA,OVC,0.00,WeatherDisplay:10.37,2013-08-11 23:49:00,
2013-08-11 17:54:00,78.6,51.6,30.20,ENE,61,1.1,0.0,39,0.00,-RA,OVC,0.00,WeatherDisplay:10.37,2013-08-11 23:54:00,
2013-08-11 17:59:00,79.2,51.4,30.20,ESE,109,3.5,3.5,38,0.00,-RA,OVC,0.00,WeatherDisplay:10.37,2013-08-11 23:59:00,
2013-08-11 18:04:00,79.2,51.4,30.20,ESE,110,1.1,1.1,38,0.00,-RA,OVC,0.00,WeatherDisplay:10.37,2013-08-12 00:04:00,
2013-08-11 18:10:00,78.7,51.0,30.20,SE,129,4.6,4.6,38,0.00,-RA,OVC,0.00,WeatherDisplay:10.37,2013-08-12 00:10:00,
2013-08-11 18:15:00,78.1,50.4,30.20,SE,129,1.1,1.1,38,0.00,-RA,OVC,0.00,WeatherDisplay:10.37,2013-08-12 00:15:00,
2013-08-11 18:20:00,77.8,51.5,30.20,SE,129,0.0,0.0,40,0.00,-RA,OVC,0.00,WeatherDisplay:10.37,2013-08-12 00:20:00,
2013-08-11 18:25:00,77.5,51.9,30.20,SE,129,1.0,0.0,41,0.00,-RA,OVC,0.00,WeatherDisplay:10.37,2013-08-12 00:25:00,
2013-08-11 18:30:00,77.3,53.1,30.20,SE,129,0.0,0.0,43,0.00,-RA,OVC,0.00,WeatherDisplay:10.37,2013-08-12 00:30:00,
2013-08-11 18:36:00,76.9,51.4,30.20,SE,129,1.1,1.1,41,0.00,-RA,OVC,0.00,WeatherDisplay:10.37,2013-08-12 00:36:00,
2013-08-11 18:41:00,76.6,50.5,30.20,SE,129,0.0,0.4,40,0.00,-RA,OVC,0.00,WeatherDisplay:10.37,2013-08-12 00:41:00,
2013-08-11 18:47:00,76.2,50.8,30.20,SE,129,1.1,1.1,41,0.00,-RA,OVC,0.00,WeatherDisplay:10.37,2013-08-12 00:47:00,
2013-08-11 18:52:00,75.9,51.2,30.20,SE,129,0.0,0.0,42,0.00,-RA,OVC,0.00,WeatherDisplay:10.37,2013-08-12 00:52:00,
2013-08-11 18:58:00,75.7,51.0,30.20,SE,129,0.0,0.0,42,0.00,-RA,OVC,0.00,WeatherDisplay:10.37,2013-08-12 00:58:00,
2013-08-11 19:03:00,75.5,51.4,30.20,SE,129,0.0,0.0,43,0.00,-RA,OVC,0.00,WeatherDisplay:10.37,2013-08-12 01:03:00,
2013-08-11 19:08:00,75.4,51.3,30.20,SE,129,0.0,0.0,43,0.00,-RA,OVC,0.00,WeatherDisplay:10.37,2013-08-12 01:08:00,
2013-08-11 19:13:00,75.2,51.2,30.20,SE,129,0.0,0.0,43,0.00,-RA,OVC,0.00,WeatherDisplay:10.37,2013-08-12 01:13:00,
2013-08-11 19:18:00,75.1,51.7,30.20,SE,129,0.0,0.0,44,0.00,-RA,OVC,0.00,WeatherDisplay:10.37,2013-08-12 01:18:00,
2013-08-11 19:23:00,75.1,51.7,30.20,SE,129,0.0,0.0,44,0.00,-RA,OVC,0.00,WeatherDisplay:10.37,2013-08-12 01:23:00,
2013-08-11 19:28:00,75.3,51.9,30.20,SE,129,0.0,0.0,44,0.00,-RA,OVC,0.00,WeatherDisplay:10.37,2013-08-12 01:28:00,
2013-08-11 19:34:00,75.3,51.9,30.20,SE,129,0.0,0.0,44,0.00,-RA,OVC,0.00,WeatherDisplay:10.37,2013-08-12 01:34:00,
2013-08-11 19:39:00,75.1,52.3,30.20,SE,129,0.0,0.0,45,0.00,-RA,OVC,0.00,WeatherDisplay:10.37,2013-08-12 01:39:00,
2013-08-11 19:44:00,74.8,51.4,30.20,SE,129,1.1,0.0,44,0.00,-RA,OVC,0.00,WeatherDisplay:10.37,2013-08-12 01:44:00,
2013-08-11 19:49:00,74.3,52.2,30.20,SE,129,0.0,0.0,46,0.00,-RA,OVC,0.00,WeatherDisplay:10.37,2013-08-12 01:49:00,
2013-08-11 19:54:00,73.9,50.0,30.20,SE,127,4.6,4.6,43,0.00,-RA,OVC,0.00,WeatherDisplay:10.37,2013-08-12 01:54:00,
2013-08-11 20:00:00,73.4,48.9,30.20,SE,128,3.5,3.5,42,0.00,-RA,OVC,0.00,WeatherDisplay:10.37,2013-08-12 02:00:00,
2013-08-11 20:05:00,73.0,48.5,30.20,SE,128,3.5,3.5,42,0.00,-RA,OVC,0.00,WeatherDisplay:10.37,2013-08-12 02:05:00,
2013-08-11 20:10:00,72.6,49.4,30.20,SE,128,0.0,0.0,44,0.00,-RA,OVC,0.00,WeatherDisplay:10.37,2013-08-12 02:10:00,
2013-08-11 20:16:00,72.1,49.0,30.20,SE,128,0.0,0.0,44,0.00,-RA,OVC,0.00,WeatherDisplay:10.37,2013-08-12 02:16:00,
2013-08-11 20:21:00,71.6,48.5,30.20,SE,128,0.0,0.1,44,0.00,-RA,OVC,0.00,WeatherDisplay:10.37,2013-08-12 02:21:00,
2013-08-11 20:26:00,71.2,48.2,30.20,SE,128,0.0,0.0,44,0.00,-RA,OVC,0.00,WeatherDisplay:10.37,2013-08-12 02:26:00,
2013-08-11 20:31:00,70.8,49.0,30.20,SE,128,0.0,0.0,46,0.00,-RA,OVC,0.00,WeatherDisplay:10.37,2013-08-12 02:31:00,
2013-08-11 20:37:00,70.4,48.6,30.20,SE,128,1.1,1.1,46,0.00,-RA,OVC,0.00,WeatherDisplay:10.37,2013-08-12 02:37:00,
2013-08-11 20:42:00,70.2,49.0,30.20,SE,128,1.1,1.1,47,0.00,-RA,OVC,0.00,WeatherDisplay:10.37,2013-08-12 02:42:00,
2013-08-11 20:47:00,70.0,49.4,30.20,SE,128,0.0,0.0,48,0.00,-RA,OVC,0.00,WeatherDisplay:10.37,2013-08-12 02:47:00,
2013-08-11 20:52:00,69.8,49.2,30.20,SE,128,0.0,0.0,48,0.00,-RA,OVC,0.00,WeatherDisplay:10.37,2013-08-12 02:52:00,
2013-08-11 20:58:00,69.4,49.4,30.20,SE,128,0.0,0.0,49,0.00,-RA,OVC,0.00,WeatherDisplay:10.37,2013-08-12 02:58:00,
2013-08-11 21:03:00,69.1,49.7,30.20,SE,128,0.0,0.0,50,0.00,-RA,OVC,0.00,WeatherDisplay:10.37,2013-08-12 03:03:00,
2013-08-11 21:09:00,68.6,49.7,30.20,SE,128,0.0,0.0,51,0.00,-RA,OVC,0.00,WeatherDisplay:10.37,2013-08-12 03:09:00,
2013-08-11 21:14:00,68.3,50.0,30.20,SE,128,0.0,0.0,52,0.00,-RA,OVC,0.00,WeatherDisplay:10.37,2013-08-12 03:14:00,
2013-08-11 21:19:00,68.0,50.2,30.20,SE,128,0.0,0.0,53,0.00,-RA,OVC,0.00,WeatherDisplay:10.37,2013-08-12 03:19:00,
2013-08-11 21:24:00,67.8,50.5,30.20,SE,128,0.0,0.0,54,0.00,-RA,OVC,0.00,WeatherDisplay:10.37,2013-08-12 03:24:00,
2013-08-11 21:30:00,67.6,50.4,30.20,SE,128,0.0,0.0,54,0.00,-RA,OVC,0.00,WeatherDisplay:10.37,2013-08-12 03:30:00,
2013-08-11 21:35:00,67.4,50.7,30.20,SE,128,0.0,0.0,55,0.00,-RA,OVC,0.00,WeatherDisplay:10.37,2013-08-12 03:35:00,
2013-08-11 21:40:00,67.3,50.6,30.20,SE,128,0.0,0.0,55,0.00,-RA,OVC,0.00,WeatherDisplay:10.37,2013-08-12 03:40:00,
2013-08-11 21:45:00,66.8,50.6,30.20,SE,128,0.0,0.0,56,0.00,-RA,OVC,0.00,WeatherDisplay:10.37,2013-08-12 03:45:00,
2013-08-11 21:50:00,66.6,50.9,30.20,SE,128,0.0,0.0,57,0.00,-RA,OVC,0.00,WeatherDisplay:10.37,2013-08-12 03:50:00,
2013-08-11 21:55:00,66.3,51.1,30.20,SE,128,0.0,0.0,58,0.00,-RA,OVC,0.00,WeatherDisplay:10.37,2013-08-12 03:55:00,
2013-08-11 22:00:00,66.0,50.8,30.20,SE,128,0.0,0.0,58,0.00,-RA,OVC,0.00,WeatherDisplay:10.37,2013-08-12 04:00:00,
2013-08-11 22:01:00,66.0,50.8,30.20,SE,128,0.0,0.0,58,0.00,-RA,OVC,0.00,WeatherDisplay:10.37,2013-08-12 04:01:00,
2013-08-11 22:04:00,65.8,50.6,30.20,SE,128,0.0,0.0,58,0.00,-RA,OVC,0.00,WeatherDisplay:10.37,2013-08-12 04:04:00,
2013-08-11 22:09:00,65.6,50.9,30.20,SE,128,0.0,0.0,59,0.00,-RA,OVC,0.00,WeatherDisplay:10.37,2013-08-12 04:09:00,
2013-08-11 22:14:00,65.4,50.7,30.20,SE,128,0.0,0.0,59,0.00,-RA,OVC,0.00,WeatherDisplay:10.37,2013-08-12 04:14:00,
2013-08-11 22:19:00,65.2,51.0,30.20,SE,128,0.0,0.0,60,0.00,-RA,OVC,0.00,WeatherDisplay:10.37,2013-08-12 04:19:00,
2013-08-11 22:24:00,65.0,50.8,30.20,SE,128,1.1,1.1,60,0.00,-RA,OVC,0.00,WeatherDisplay:10.37,2013-08-12 04:24:00,
2013-08-11 22:29:00,65.1,50.0,30.20,SE,128,3.5,3.5,58,0.00,-RA,OVC,0.00,WeatherDisplay:10.37,2013-08-12 04:29:00,
2013-08-11 22:34:00,65.5,50.3,30.20,SE,128,1.1,0.0,58,0.00,-RA,OVC,0.00,WeatherDisplay:10.37,2013-08-12 04:34:00,
2013-08-11 22:39:00,66.0,50.3,30.20,SE,128,1.1,0.0,57,0.00,-RA,OVC,0.00,WeatherDisplay:10.37,2013-08-12 04:39:00,
2013-08-11 22:44:00,66.5,49.8,30.20,SE,127,4.0,4.0,55,0.00,-RA,OVC,0.00,WeatherDisplay:10.37,2013-08-12 04:44:00,
2013-08-11 22:49:00,67.1,49.9,30.20,SE,130,2.3,2.3,54,0.00,-RA,OVC,0.00,WeatherDisplay:10.37,2013-08-12 04:49:00,
2013-08-11 22:54:00,67.4,50.2,30.20,SE,130,0.0,0.0,54,0.00,-RA,OVC,0.00,WeatherDisplay:10.37,2013-08-12 04:54:00,
2013-08-11 22:59:00,67.4,50.2,30.20,SE,130,2.3,2.3,54,0.00,-RA,OVC,0.00,WeatherDisplay:10.37,2013-08-12 04:59:00,
2013-08-11 23:04:00,67.4,50.2,30.20,SE,130,2.3,2.3,54,0.00,-RA,OVC,0.00,WeatherDisplay:10.37,2013-08-12 05:04:00,
2013-08-11 23:09:00,67.4,50.2,30.20,SE,130,2.3,2.3,54,0.00,-RA,OVC,0.00,WeatherDisplay:10.37,2013-08-12 05:09:00,
2013-08-11 23:14:00,67.3,50.1,30.20,SE,130,0.0,0.0,54,0.00,-RA,OVC,0.00,WeatherDisplay:10.37,2013-08-12 05:14:00,
2013-08-11 23:19:00,67.0,50.3,30.20,SE,130,0.0,0.0,55,0.00,-RA,OVC,0.00,WeatherDisplay:10.37,2013-08-12 05:19:00,
2013-08-11 23:24:00,66.7,50.5,30.20,SE,130,0.0,0.0,56,0.00,-RA,OVC,0.00,WeatherDisplay:10.37,2013-08-12 05:24:00,
2013-08-11 23:29:00,66.2,50.5,30.20,SE,130,0.0,0.0,57,0.00,-RA,OVC,0.00,WeatherDisplay:10.37,2013-08-12 05:29:00,
2013-08-11 23:34:00,65.8,50.1,30.20,SE,130,0.0,0.0,57,0.00,-RA,OVC,0.00,WeatherDisplay:10.37,2013-08-12 05:34:00,
2013-08-11 23:39:00,65.4,50.2,30.20,SE,130,0.0,0.0,58,0.00,-RA,OVC,0.00,WeatherDisplay:10.37,2013-08-12 05:39:00,
2013-08-11 23:44:00,65.0,50.3,30.20,SE,130,0.0,0.0,59,0.00,-RA,OVC,0.00,WeatherDisplay:10.37,2013-08-12 05:44:00,
2013-08-11 23:49:00,64.6,50.8,30.20,SE,130,0.0,0.0,61,0.00,-RA,OVC,0.00,WeatherDisplay:10.37,2013-08-12 05:49:00,
2013-08-11 23:54:00,64.2,50.0,30.20,SE,130,0.0,0.0,60,0.00,-RA,OVC,0.00,WeatherDisplay:10.37,2013-08-12 05:54:00,
2013-08-11 23:59:00,64.0,49.8,30.20,SE,130,0.0,0.0,60,0.00,-RA,OVC,0.00,WeatherDisplay:10.37,2013-08-12 05:59:00,